You are not logged in, Click here to log in
斯基亞索斯鎮島機場JSI / LGSK 希腦的聖馬丁
ICAO: LGSK Country: 希腦的聖馬丁
Latitude: 39.1771 Longitude: 23.5037
Total Arrivals: 2 Total Departures: 2
Latest Arrival: BV24240 (LGKR-LGSK)Stone. Chang Latest Departure: BV24252 (LGSK-LGKR)Stone. Chang
Scenery:
METAR : LGSK 110350Z 03007KT 9999 FEW018 24/18 Q1014

斯基亞索斯鎮島機場JSI

You are accessing this site from IP address 34.229.119.29. Virtual Airline. CMS by phpVMS.Website designed by Zumeweb and edited by Theo Bearman.
There is 1 User(s) Online: | Lun Wang | and 24 Guest(s) Online.
All information on this site is for fight simulation purposes only. This site is for flight logging for pilots of Virtual Airline&模擬飛行論壇 FlySim only.